Time;durP1;ratioP1;P1;durP2;ratioP2;P2;SDS_P1;SDS_P2;PMS_P1;PMS_P2;Temp;Humidity;BMP_temperature;BMP_pressure;BME280_temperature;BME280_humidity;BME280_pressure;Samples;Min_cycle;Max_cycle;Signal;HPM_P1;HPM_P2
2022/05/06 00:01:46;;;;;;;;;;;;;;;;;;5091519;28;19919;-67
2022/05/06 00:05:32;;;;;;;;;;;;;;;;;;5091236;27;20398;-67
2022/05/06 00:07:58;;;;;;;;;;;;;;;;;;5091188;28;19916;-67
2022/05/06 00:10:24;;;;;;;;;;;;;;;;;;5091051;28;20361;-67
2022/05/06 00:12:50;;;;;;;;;;;;;;;;;;5091100;28;19908;-67
2022/05/06 00:15:16;;;;;;;;;;;;;;;;;;5089760;28;20377;-67
2022/05/06 00:17:42;;;;;;;;;;;;;;;;;;5090682;28;20288;-67
2022/05/06 00:21:30;;;;;;;;;;;;;;;;;;5091680;27;19938;-69
2022/05/06 00:23:56;;;;;;;;;;;;;;;;;;5091286;28;20235;-69
2022/05/06 00:26:22;;;;;;;;;;;;;;;;;;5091110;28;19908;-69
2022/05/06 00:28:48;;;;;;;;;;;;;;;;;;5091170;28;19962;-69
2022/05/06 00:31:14;;;;;;;;;;;;;;;;;;5090769;28;20426;-69
2022/05/06 00:33:40;;;;;;;;;;;;;;;;;;5091478;28;20372;-69
2022/05/06 00:36:07;;;;;;;;;;;;;;;;;;5091132;28;20326;-69
2022/05/06 00:38:33;;;;;;;;;;;;;;;;;;5090532;28;20046;-69
2022/05/06 00:40:59;;;;;;;;;;;;;;;;;;5090923;28;20023;-69
2022/05/06 00:43:25;;;;;;;;;;;;;;;;;;5090795;28;20334;-69
2022/05/06 00:45:52;;;;;;;;;;;;;;;;;;5090604;28;19934;-69
2022/05/06 00:48:18;;;;;;;;;;;;;;;;;;5089459;28;19908;-69
2022/05/06 00:50:44;;;;;;;;;;;;;;;;;;5090680;28;19916;-69
2022/05/06 00:53:10;;;;;;;;;;;;;;;;;;5090206;28;19913;-69
2022/05/06 00:55:36;;;;;;;;;;;;;;;;;;5090744;28;19909;-69
2022/05/06 00:58:02;;;;;;;;;;;;;;;;;;5090932;28;19915;-69
2022/05/06 01:00:29;;;;;;;;;;;;;;;;;;5088698;28;20391;-67
2022/05/06 01:02:55;;;;;;;;;;;;;;;;;;5090417;28;19915;-67
2022/05/06 01:05:22;;;;;;;;;;;;;;;;;;5090370;28;19908;-67
2022/05/06 01:07:49;;;;;;;;;;;;;;;;;;5088724;28;19908;-68
2022/05/06 01:10:16;;;;;;;;;;;;;;;;;;5090269;28;19970;-67
2022/05/06 01:12:42;;;;;;;;;;;;;;;;;;5090321;28;19915;-67
2022/05/06 01:15:08;;;;;;;;;;;;;;;;;;5089844;28;19909;-67
2022/05/06 01:17:34;;;;;;;;;;;;;;;;;;5090108;28;19993;-67
2022/05/06 01:19:59;;;;;;;;;;;;;;;;;;5097743;28;19924;-67
2022/05/06 01:22:26;;;;;;;;;;;;;;;;;;5110760;28;19914;-68
2022/05/06 01:24:52;;;;;;;;;;;;;;;;;;5110750;28;19908;-67
2022/05/06 01:27:18;;;;;;;;;;;;;;;;;;5091664;28;20004;-67
2022/05/06 01:29:44;;;;;;;;;;;;;;;;;;5110340;28;19951;-67
2022/05/06 01:32:10;;;;;;;;;;;;;;;;;;5100526;28;20288;-68
2022/05/06 01:34:36;;;;;;;;;;;;;;;;;;5096536;28;19962;-67
2022/05/06 01:37:02;;;;;;;;;;;;;;;;;;5078397;28;20365;-67
2022/05/06 01:39:28;;;;;;;;;;;;;;;;;;5096473;28;20007;-68
2022/05/06 01:41:55;;;;;;;;;;;;;;;;;;5096015;28;19912;-67
2022/05/06 01:44:21;;;;;;;;;;;;;;;;;;5096446;28;19911;-68
2022/05/06 01:46:47;;;;;;;;;;;;;;;;;;5096359;28;19953;-68
2022/05/06 01:49:13;;;;;;;;;;;;;;;;;;5096177;28;19994;-68
2022/05/06 01:51:39;;;;;;;;;;;;;;;;;;5096339;28;19966;-67
2022/05/06 01:54:05;;;;;;;;;;;;;;;;;;5096264;28;19913;-67
2022/05/06 01:56:31;;;;;;;;;;;;;;;;;;5095851;28;20291;-67
2022/05/06 01:58:57;;;;;;;;;;;;;;;;;;5096068;28;19969;-67
2022/05/06 02:01:23;;;;;;;;;;;;;;;;;;5095961;28;20057;-68
2022/05/06 02:06:33;;;;;;;;;;;;;;;;;;5096054;28;19915;-68
2022/05/06 02:08:59;;;;;;;;;;;;;;;;;;5095955;28;19912;-69
2022/05/06 02:11:25;;;;;;;;;;;;;;;;;;5095500;28;20292;-69
2022/05/06 02:13:51;;;;;;;;;;;;;;;;;;5095812;28;19908;-69
2022/05/06 02:16:17;;;;;;;;;;;;;;;;;;5095481;28;19912;-68
2022/05/06 02:18:44;;;;;;;;;;;;;;;;;;5096103;28;20316;-69
2022/05/06 02:21:10;;;;;;;;;;;;;;;;;;5095603;28;19924;-69
2022/05/06 02:23:37;;;;;;;;;;;;;;;;;;5095294;28;19908;-69
2022/05/06 02:26:02;;;;;;;;;;;;;;;;;;5095590;28;20375;-69
2022/05/06 02:28:28;;;;;;;;;;;;;;;;;;5095549;28;19909;-69
2022/05/06 02:33:39;;;;;;;;;;;;;;;;;;5095512;28;19953;-69
2022/05/06 02:36:05;;;;;;;;;;;;;;;;;;5095423;28;19908;-69
2022/05/06 02:38:31;;;;;;;;;;;;;;;;;;5094927;28;20258;-69
2022/05/06 02:40:57;;;;;;;;;;;;;;;;;;5077061;28;20377;-69
2022/05/06 02:43:23;;;;;;;;;;;;;;;;;;5094299;28;19991;-68
2022/05/06 02:45:49;;;;;;;;;;;;;;;;;;5094842;28;19908;-69
2022/05/06 02:48:15;;;;;;;;;;;;;;;;;;5095134;28;20357;-69
2022/05/06 02:50:42;;;;;;;;;;;;;;;;;;5095115;28;19914;-69
2022/05/06 02:53:08;;;;;;;;;;;;;;;;;;5094664;28;19908;-69
2022/05/06 02:55:34;;;;;;;;;;;;;;;;;;5095269;28;19961;-69
2022/05/06 02:58:00;;;;;;;;;;;;;;;;;;5095558;28;19908;-68
2022/05/06 03:00:27;;;;;;;;;;;;;;;;;;5076364;28;19916;-68
2022/05/06 03:02:55;;;;;;;;;;;;;;;;;;5091462;28;19908;-69
2022/05/06 03:05:21;;;;;;;;;;;;;;;;;;5094611;28;19916;-69
2022/05/06 03:07:47;;;;;;;;;;;;;;;;;;5094705;28;19908;-69
2022/05/06 03:10:13;;;;;;;;;;;;;;;;;;5094723;28;20356;-69
2022/05/06 03:12:39;;;;;;;;;;;;;;;;;;5094222;28;19915;-69
2022/05/06 03:15:05;;;;;;;;;;;;;;;;;;5094504;28;20003;-69
2022/05/06 03:17:31;;;;;;;;;;;;;;;;;;5094671;28;19908;-69
2022/05/06 03:19:57;;;;;;;;;;;;;;;;;;5093545;28;19920;-69
2022/05/06 03:22:23;;;;;;;;;;;;;;;;;;5094616;28;19914;-69
2022/05/06 03:24:49;;;;;;;;;;;;;;;;;;5094326;28;19912;-69
2022/05/06 03:30:00;;;;;;;;;;;;;;;;;;5094356;28;20387;-68
2022/05/06 03:32:26;;;;;;;;;;;;;;;;;;5094312;28;19915;-68
2022/05/06 03:34:52;;;;;;;;;;;;;;;;;;5094194;28;19916;-68
2022/05/06 03:37:18;;;;;;;;;;;;;;;;;;5094216;28;19931;-68
2022/05/06 03:39:44;;;;;;;;;;;;;;;;;;5094208;28;20288;-69
2022/05/06 03:42:10;;;;;;;;;;;;;;;;;;5093817;28;19912;-68
2022/05/06 03:44:36;;;;;;;;;;;;;;;;;;5093378;28;19908;-68
2022/05/06 03:47:02;;;;;;;;;;;;;;;;;;5094168;28;19915;-68
2022/05/06 03:49:28;;;;;;;;;;;;;;;;;;5093738;28;19909;-68
2022/05/06 03:51:54;;;;;;;;;;;;;;;;;;5094174;28;19912;-68
2022/05/06 03:54:20;;;;;;;;;;;;;;;;;;5093744;28;19916;-68
2022/05/06 03:56:46;;;;;;;;;;;;;;;;;;5093556;28;19908;-68
2022/05/06 03:59:12;;;;;;;;;;;;;;;;;;5093882;28;19989;-68
2022/05/06 04:01:38;;;;;;;;;;;;;;;;;;5093562;28;19955;-68
2022/05/06 04:04:05;;;;;;;;;;;;;;;;;;5093928;28;20441;-68
2022/05/06 04:06:31;;;;;;;;;;;;;;;;;;5094358;28;19908;-68
2022/05/06 04:08:57;;;;;;;;;;;;;;;;;;5093476;28;20440;-68
2022/05/06 04:11:24;;;;;;;;;;;;;;;;;;5093785;28;20384;-68
2022/05/06 04:13:50;;;;;;;;;;;;;;;;;;5093703;28;19941;-68
2022/05/06 04:16:16;;;;;;;;;;;;;;;;;;5093717;28;19915;-68
2022/05/06 04:18:42;;;;;;;;;;;;;;;;;;5094016;28;19954;-68
2022/05/06 04:23:52;;;;;;;;;;;;;;;;;;5093236;28;19915;-67
2022/05/06 04:26:18;;;;;;;;;;;;;;;;;;5093566;28;19908;-66
2022/05/06 04:28:44;;;;;;;;;;;;;;;;;;5094035;28;19973;-66
2022/05/06 04:31:10;;;;;;;;;;;;;;;;;;5075042;28;19943;-66
2022/05/06 04:33:36;;;;;;;;;;;;;;;;;;5093644;28;20214;-66
2022/05/06 04:36:04;;;;;;;;;;;;;;;;;;5093529;28;19915;-66
2022/05/06 04:38:29;;;;;;;;;;;;;;;;;;5093132;28;19965;-66
2022/05/06 04:40:56;;;;;;;;;;;;;;;;;;5093434;28;19920;-66
2022/05/06 04:43:22;;;;;;;;;;;;;;;;;;5093969;28;19908;-66
2022/05/06 04:45:48;;;;;;;;;;;;;;;;;;5092996;28;19908;-66
2022/05/06 04:48:14;;;;;;;;;;;;;;;;;;5093423;28;19991;-66
2022/05/06 04:50:40;;;;;;;;;;;;;;;;;;5092139;28;19913;-69
2022/05/06 04:53:09;;;;;;;;;;;;;;;;;;5092984;28;19915;-66
2022/05/06 04:55:35;;;;;;;;;;;;;;;;;;5093319;28;19908;-66
2022/05/06 04:58:02;;;;;;;;;;;;;;;;;;5091718;28;19961;-66
2022/05/06 05:00:28;;;;;;;;;;;;;;;;;;5093046;28;20015;-67
2022/05/06 05:02:54;;;;;;;;;;;;;;;;;;5093147;28;19932;-66
2022/05/06 05:05:20;;;;;;;;;;;;;;;;;;5092890;28;19934;-67
2022/05/06 05:07:46;;;;;;;;;;;;;;;;;;5096626;28;19908;-67
2022/05/06 05:10:12;;;;;;;;;;;;;;;;;;5097041;28;19912;-67
2022/05/06 05:12:38;;;;;;;;;;;;;;;;;;5096748;28;20321;-66
2022/05/06 05:15:04;;;;;;;;;;;;;;;;;;5097567;28;20276;-66
2022/05/06 05:17:30;;;;;;;;;;;;;;;;;;5096644;28;19912;-67
2022/05/06 05:19:56;;;;;;;;;;;;;;;;;;5096113;28;19990;-67
2022/05/06 05:22:22;;;;;;;;;;;;;;;;;;5105913;28;19911;-66
2022/05/06 05:24:48;;;;;;;;;;;;;;;;;;5084299;28;19926;-67
2022/05/06 05:27:14;;;;;;;;;;;;;;;;;;5090313;28;19912;-66
2022/05/06 05:29:40;;;;;;;;;;;;;;;;;;5094483;28;19922;-66
2022/05/06 05:32:07;;;;;;;;;;;;;;;;;;5096114;28;19928;-66
2022/05/06 05:34:33;;;;;;;;;;;;;;;;;;5095450;28;19919;-66
2022/05/06 05:36:59;;;;;;;;;;;;;;;;;;5096456;28;19908;-66
2022/05/06 05:39:25;;;;;;;;;;;;;;;;;;5095321;28;20272;-67
2022/05/06 05:41:51;;;;;;;;;;;;;;;;;;5094448;28;20015;-66
2022/05/06 05:49:46;;;;;;;;;;;;;;;;;;5115084;28;19914;-67
2022/05/06 05:52:12;;;;;;;;;;;;;;;;;;5113120;28;19995;-67
2022/05/06 05:54:38;;;;;;;;;;;;;;;;;;5113429;28;19908;-67
2022/05/06 05:57:04;;;;;;;;;;;;;;;;;;5097132;28;20368;-67
2022/05/06 05:59:30;;;;;;;;;;;;;;;;;;5115040;28;19912;-67
2022/05/06 06:01:56;;;;;;;;;;;;;;;;;;5115674;28;19907;-67
2022/05/06 06:04:22;;;;;;;;;;;;;;;;;;5111817;28;20558;-67
2022/05/06 06:06:48;;;;;;;;;;;;;;;;;;5113736;28;19960;-67
2022/05/06 06:10:14;;;;;;;;;;;;;;;;;;5111720;27;19916;-65
2022/05/06 06:12:40;;;;;;;;;;;;;;;;;;5109347;28;20011;-65
2022/05/06 06:15:36;;;;;;;;;;;;;;;;;;5127584;27;19918;-65
2022/05/06 06:18:58;;;;;;;;;;;;;;;;;;5108604;27;19912;-68
2022/05/06 06:21:24;;;;;;;;;;;;;;;;;;5105932;28;19919;-67
2022/05/06 06:23:50;;;;;;;;;;;;;;;;;;5107562;28;19908;-67
2022/05/06 06:26:16;;;;;;;;;;;;;;;;;;5108304;28;20343;-67
2022/05/06 06:30:28;;;;;;;;;;;;;;;;;;5087049;27;19913;-66
2022/05/06 06:35:08;;;;;;;;;;;;;;;;;;5109082;27;20289;-67
2022/05/06 06:42:25;;;;;;;;;;;;;;;;;;5151719;27;20006;-67
2022/05/06 06:46:56;;;;;;;;;;;;;;;;;;5111841;27;20387;-68
2022/05/06 06:49:22;;;;;;;;;;;;;;;;;;5111150;28;19916;-68
2022/05/06 06:57:10;;;;;;;;;;;;;;;;;;5152250;27;19912;-67
2022/05/06 06:59:36;;;;;;;;;;;;;;;;;;5151164;27;19918;-67
2022/05/06 07:02:02;;;;;;;;;;;;;;;;;;5152282;27;19908;-67
2022/05/06 07:04:53;;;;;;;;;;;;;;;;;;5090276;27;19917;-67
2022/05/06 07:12:25;;;;;;;;;;;;;;;;;;5090452;27;19916;-66
2022/05/06 07:17:15;;;;;;;;;;;;;;;;;;5087341;28;19923;-67
2022/05/06 07:19:41;;;;;;;;;;;;;;;;;;5085940;28;19954;-68
2022/05/06 07:24:18;;;;;;;;;;;;;;;;;;5088524;27;19947;-69
2022/05/06 07:26:44;;;;;;;;;;;;;;;;;;5093139;28;20416;-67
2022/05/06 07:30:19;;;;;;;;;;;;;;;;;;5113731;27;20022;-66
2022/05/06 07:32:45;;;;;;;;;;;;;;;;;;5124721;28;19954;-66
2022/05/06 07:36:49;;;;;;;;;;;;;;;;;;5111456;27;19922;-67
2022/05/06 07:39:15;;;;;;;;;;;;;;;;;;5108074;28;20491;-67
2022/05/06 07:41:41;;;;;;;;;;;;;;;;;;5109012;28;19908;-65
2022/05/06 07:46:03;;;;;;;;;;;;;;;;;;5108773;27;19920;-65
2022/05/06 07:50:26;;;;;;;;;;;;;;;;;;5109001;27;19916;-65
2022/05/06 07:52:52;;;;;;;;;;;;;;;;;;5109398;28;19912;-66
2022/05/06 07:55:19;;;;;;;;;;;;;;;;;;5109740;28;19915;-65
2022/05/06 07:57:46;;;;;;;;;;;;;;;;;;5109769;28;19912;-66
2022/05/06 08:07:39;;;;;;;;;;;;;;;;;;5171467;27;20013;-65
2022/05/06 08:17:16;;;;;;;;;;;;;;;;;;5089400;28;19919;-64
2022/05/06 08:21:04;;;;;;;;;;;;;;;;;;5090783;27;19912;-65
2022/05/06 08:28:53;;;;;;;;;;;;;;;;;;5170805;27;19922;-65
2022/05/06 08:32:29;;;;;;;;;;;;;;;;;;5107591;27;20295;-65
2022/05/06 08:36:28;;;;;;;;;;;;;;;;;;5090501;27;19926;-64
2022/05/06 08:38:54;;;;;;;;;;;;;;;;;;5090865;28;20013;-66
2022/05/06 08:41:20;;;;;;;;;;;;;;;;;;5090832;28;20380;-66
2022/05/06 08:51:40;;;;;;;;;;;;;;;;;;5150985;27;20008;-65
2022/05/06 08:54:07;;;;;;;;;;;;;;;;;;5131971;27;20457;-65
2022/05/06 08:56:33;;;;;;;;;;;;;;;;;;5129711;27;19912;-66
2022/05/06 08:58:59;;;;;;;;;;;;;;;;;;5147994;27;20030;-65
2022/05/06 09:01:25;;;;;;;;;;;;;;;;;;5148562;27;20426;-66
2022/05/06 09:03:51;;;;;;;;;;;;;;;;;;5148607;27;19907;-66
2022/05/06 09:08:41;;;;;;;;;;;;;;;;;;5106708;27;19913;-63
2022/05/06 09:13:31;;;;;;;;;;;;;;;;;;5087745;27;19947;-63
2022/05/06 09:20:57;;;;;;;;;;;;;;;;;;5087844;27;19913;-64
2022/05/06 09:23:24;;;;;;;;;;;;;;;;;;5086721;28;19943;-64
2022/05/06 09:25:50;;;;;;;;;;;;;;;;;;5086804;28;19962;-64
2022/05/06 09:29:03;;;;;;;;;;;;;;;;;;5088336;27;19918;-65
2022/05/06 09:31:54;;;;;;;;;;;;;;;;;;5089154;27;19916;-63
2022/05/06 09:34:20;;;;;;;;;;;;;;;;;;5090620;28;19913;-64
2022/05/06 09:36:46;;;;;;;;;;;;;;;;;;5089932;28;19908;-63
2022/05/06 09:43:39;;;;;;;;;;;;;;;;;;5091678;28;19939;-63
2022/05/06 09:46:05;;;;;;;;;;;;;;;;;;5089429;28;19952;-63
2022/05/06 09:48:31;;;;;;;;;;;;;;;;;;5088733;28;20369;-63
2022/05/06 09:51:00;;;;;;;;;;;;;;;;;;5078066;28;19932;-64
2022/05/06 09:53:40;;;;;;;;;;;;;;;;;;5108779;27;20283;-64
2022/05/06 09:56:33;;;;;;;;;;;;;;;;;;5108614;27;19916;-63
2022/05/06 10:01:25;;;;;;;;;;;;;;;;;;5148219;27;19920;-65
2022/05/06 10:07:22;;;;;;;;;;;;;;;;;;5104734;27;20279;-64
2022/05/06 10:10:34;;;;;;;;;;;;;;;;;;5089544;27;19916;-64
2022/05/06 10:13:29;;;;;;;;;;;;;;;;;;5089080;28;19942;-66
2022/05/06 10:17:50;;;;;;;;;;;;;;;;;;5088944;28;19916;-66
2022/05/06 10:20:16;;;;;;;;;;;;;;;;;;5087766;28;19912;-66
2022/05/06 10:22:42;;;;;;;;;;;;;;;;;;5088436;28;20311;-65
2022/05/06 10:25:08;;;;;;;;;;;;;;;;;;5088936;28;19916;-65
2022/05/06 10:32:59;;;;;;;;;;;;;;;;;;5129733;28;19969;-64
2022/05/06 10:35:25;;;;;;;;;;;;;;;;;;5130634;27;19907;-65
2022/05/06 10:39:48;;;;;;;;;;;;;;;;;;5089881;27;20594;-65
2022/05/06 10:42:17;;;;;;;;;;;;;;;;;;5088852;28;20380;-64
2022/05/06 10:44:44;;;;;;;;;;;;;;;;;;5088775;28;20336;-64
2022/05/06 10:47:52;;;;;;;;;;;;;;;;;;5140164;27;20288;-64
2022/05/06 10:50:23;;;;;;;;;;;;;;;;;;5109440;28;20436;-64
2022/05/06 10:52:49;;;;;;;;;;;;;;;;;;5127643;28;19965;-66
2022/05/06 10:55:16;;;;;;;;;;;;;;;;;;5128483;28;20275;-66
2022/05/06 10:57:42;;;;;;;;;;;;;;;;;;5128383;28;19946;-66
2022/05/06 11:00:08;;;;;;;;;;;;;;;;;;5111032;28;19951;-65
2022/05/06 11:02:34;;;;;;;;;;;;;;;;;;5127708;28;20425;-66
2022/05/06 11:05:00;;;;;;;;;;;;;;;;;;5128397;28;19918;-70
2022/05/06 11:07:25;;;;;;;;;;;;;;;;;;5128912;28;19944;-70
2022/05/06 11:09:52;;;;;;;5.00;3.05;;;;;;;;;;5128017;28;20377;-70
2022/05/06 11:12:30;;;;;;;4.18;2.60;;;;;;;;;;5128918;28;20425;-71
2022/05/06 11:14:57;;;;;;;5.65;2.85;;;;;;;;;;5129163;28;20094;-70
2022/05/06 11:17:24;;;;;;;5.20;2.75;;;;;;;;;;5130567;28;20114;-69
2022/05/06 11:19:51;;;;;;;4.15;2.70;;;;;;;;;;5129569;28;20019;-70
2022/05/06 11:22:17;;;;;;;5.05;2.97;;;;;;;;;;5126241;28;20107;-70
2022/05/06 11:26:25;;;;;;;8.15;4.05;;;;;;;;;;5109042;27;20484;-70
2022/05/06 11:29:05;;;;;;;5.88;2.80;;;;;;;;;;5111011;28;20504;-70
2022/05/06 11:31:31;;;;;;;4.13;2.45;;;;;;;;;;5110892;28;20122;-70
2022/05/06 11:33:59;;;;;;;4.10;2.70;;;;;;;;;;5108520;28;20376;-69
2022/05/06 11:36:26;;;;;;;6.07;2.70;;;;;;;;;;5110849;28;20035;-69
2022/05/06 11:38:52;;;;;;;6.15;3.03;;;;;;;;;;5109573;28;20031;-70
2022/05/06 11:41:19;;;;;;;5.82;3.15;;;;;;;;;;5110700;28;20130;-70
2022/05/06 11:43:46;;;;;;;5.85;2.80;;;;;;;;;;5109157;28;20095;-70
2022/05/06 11:49:06;;;;;;;7.18;2.83;;;;;;;;;;5110678;28;20115;-69
2022/05/06 11:51:40;;;;;;;6.82;3.17;;;;;;;;;;5110455;28;20048;-69
2022/05/06 11:54:07;;;;;;;7.00;2.80;;;;;;;;;;5107193;28;20449;-69
2022/05/06 11:56:33;;;;;;;4.60;2.95;;;;;;;;;;5110492;28;20020;-70
2022/05/06 11:58:59;;;;;;;4.03;2.53;;;;;;;;;;5109385;28;20020;-69
2022/05/06 12:01:29;;;;;;;3.97;2.53;;;;;;;;;;5109416;28;20042;-69
2022/05/06 12:04:02;;;;;;;6.13;2.88;;;;;;;;;;5110202;28;20016;-69
2022/05/06 12:06:31;;;;;;;4.22;2.30;;;;;;;;;;5107368;28;20028;-69
2022/05/06 12:09:08;;;;;;;3.95;2.58;;;;;;;;;;5106591;28;20073;-70
2022/05/06 12:11:34;;;;;;;4.15;2.60;;;;;;;;;;5107841;28;20024;-70
2022/05/06 12:14:13;;;;;;;6.07;3.05;;;;;;;;;;5107687;28;20052;-70
2022/05/06 12:16:55;;;;;;;5.25;2.92;;;;;;;;;;5106977;28;20433;-70
2022/05/06 12:19:40;;;;;;;6.97;3.10;;;;;;;;;;5096952;28;20024;-70
2022/05/06 12:22:10;;;;;;;5.70;3.05;;;;;;;;;;5095843;28;20115;-70
2022/05/06 12:24:40;;;;;;;7.05;2.70;;;;;;;;;;5097871;28;20486;-69
2022/05/06 12:27:08;;;;;;;3.67;2.20;;;;;;;;;;5088521;28;20468;-71
2022/05/06 12:29:38;;;;;;;4.30;2.50;;;;;;;;;;5088992;28;20157;-69
2022/05/06 12:32:28;;;;;;;3.85;2.40;;;;;;;;;;5111028;27;21030;-70
2022/05/06 12:35:05;;;;;;;7.38;3.13;;;;;;;;;;5111173;28;20028;-69
2022/05/06 12:37:31;;;;;;;4.75;2.65;;;;;;;;;;5111047;28;20510;-69
2022/05/06 12:40:01;;;;;;;3.78;2.67;;;;;;;;;;5110972;28;20024;-69
2022/05/06 12:43:12;;;;;;;5.55;3.38;;;;;;;;;;5110522;27;20419;-69
2022/05/06 12:45:39;;;;;;;4.85;2.88;;;;;;;;;;5110676;28;20032;-68
2022/05/06 12:50:50;;;;;;;6.60;2.72;;;;;;;;;;5110953;28;20062;-68
2022/05/06 12:53:16;;;;;;;6.18;2.65;;;;;;;;;;5111086;28;20468;-69
2022/05/06 12:55:43;;;;;;;5.47;2.45;;;;;;;;;;5109470;28;20298;-69
2022/05/06 12:58:10;;;;;;;5.22;2.67;;;;;;;;;;5110148;28;20016;-69
2022/05/06 13:00:38;;;;;;;9.25;2.90;;;;;;;;;;5110147;28;20095;-69
2022/05/06 13:03:04;;;;;;;4.13;2.67;;;;;;;;;;5110651;28;20084;-70
2022/05/06 13:05:30;;;;;;;4.30;2.90;;;;;;;;;;5109939;28;20066;-69
2022/05/06 13:07:56;;;;;;;4.15;2.30;;;;;;;;;;5110528;28;20117;-69
2022/05/06 13:10:23;;;;;;;6.22;2.90;;;;;;;;;;5109986;28;20076;-69
2022/05/06 13:12:49;;;;;;;5.05;2.83;;;;;;;;;;5109905;28;20024;-69
2022/05/06 13:15:15;;;;;;;5.80;2.80;;;;;;;;;;5109593;28;20468;-71
2022/05/06 13:17:41;;;;;;;6.60;2.78;;;;;;;;;;5107350;28;20020;-70
2022/05/06 13:20:08;;;;;;;5.25;3.13;;;;;;;;;;5109174;28;20491;-70
2022/05/06 13:22:35;;;;;;;5.15;2.92;;;;;;;;;;5110098;28;20042;-70
2022/05/06 13:25:02;;;;;;;4.75;2.65;;;;;;;;;;5109889;28;20016;-70
2022/05/06 13:27:28;;;;;;;6.50;2.95;;;;;;;;;;5108432;28;20480;-70
2022/05/06 13:29:54;;;;;;;6.15;3.03;;;;;;;;;;5109115;28;20020;-70
2022/05/06 13:32:20;;;;;;;6.05;3.17;;;;;;;;;;5109927;28;20078;-70
2022/05/06 13:34:46;;;;;;;5.35;2.90;;;;;;;;;;5109999;28;20020;-69
2022/05/06 13:37:13;;;;;;;5.75;2.75;;;;;;;;;;5110049;28;20034;-69
2022/05/06 13:39:39;;;;;;;4.55;2.60;;;;;;;;;;5109622;28;20074;-70
2022/05/06 13:42:05;;;;;;;5.05;2.60;;;;;;;;;;5109742;28;20120;-70
2022/05/06 13:44:31;;;;;;;4.72;2.80;;;;;;;;;;5110298;28;20024;-71
2022/05/06 13:46:58;;;;;;;6.18;3.08;;;;;;;;;;5109416;28;20042;-71
2022/05/06 13:49:24;;;;;;;6.18;2.70;;;;;;;;;;5109818;28;20020;-71
2022/05/06 13:51:50;;;;;;;5.85;2.75;;;;;;;;;;5108554;28;20031;-70
2022/05/06 13:54:16;;;;;;;6.07;2.72;;;;;;;;;;5096504;28;20054;-70
2022/05/06 13:59:27;;;;;;;5.40;2.72;;;;;;;;;;5096085;28;20080;-71
2022/05/06 14:01:53;;;;;;;4.90;2.70;;;;;;;;;;5096060;28;20092;-71
2022/05/06 14:04:56;;;;;;;5.55;3.05;;;;;;;;;;5111764;27;20388;-70
2022/05/06 14:08:38;;;;;;;5.32;2.67;;;;;;;;;;5110771;27;20401;-71
2022/05/06 14:11:04;;;;;;;5.32;3.10;;;;;;;;;;5111229;28;20098;-70
2022/05/06 14:13:31;;;;;;;7.75;2.88;;;;;;;;;;5110938;28;20483;-71
2022/05/06 14:15:57;;;;;;;6.68;3.30;;;;;;;;;;5111088;28;20480;-71
2022/05/06 14:18:23;;;;;;;5.95;3.40;;;;;;;;;;5110977;28;20019;-70
2022/05/06 14:20:49;;;;;;;5.70;3.50;;;;;;;;;;5110521;28;20373;-70
2022/05/06 14:23:16;;;;;;;6.60;3.13;;;;;;;;;;5111062;28;20035;-70
2022/05/06 14:25:42;;;;;;;7.45;3.60;;;;;;;;;;5110894;28;20016;-71
2022/05/06 14:29:24;;;;;;;6.03;3.45;;;;;;;;;;5111025;27;20396;-71
2022/05/06 14:32:10;;;;;;;6.30;3.03;;;;;;;;;;5111299;27;20450;-70
2022/05/06 14:34:36;;;;;;;7.18;3.20;;;;;;;;;;5110995;28;20097;-71
2022/05/06 14:37:03;;;;;;;5.32;2.70;;;;;;;;;;5111019;28;20537;-71
2022/05/06 14:40:50;;;;;;;6.00;3.17;;;;;;;;;;5111140;27;20400;-70
2022/05/06 14:43:48;;;;;;;6.05;3.03;;;;;;;;;;5110834;27;20422;-71
2022/05/06 14:46:15;;;;;;;8.75;3.70;;;;;;;;;;5109745;28;20031;-70
2022/05/06 14:48:41;;;;;;;7.18;3.30;;;;;;;;;;5110717;28;20424;-70
2022/05/06 14:51:56;;;;;;;5.25;3.03;;;;;;;;;;5110299;27;20415;-70
2022/05/06 14:56:31;;;;;;;5.53;3.03;;;;;;;;;;5111139;27;20462;-71
2022/05/06 14:59:01;;;;;;;5.85;3.20;;;;;;;;;;5109844;28;20563;-71
2022/05/06 15:01:28;;;;;;;7.38;2.67;;;;;;;;;;5111009;28;20024;-71
2022/05/06 15:03:54;;;;;;;6.32;2.72;;;;;;;;;;5110534;28;20050;-71
2022/05/06 15:06:20;;;;;;;3.63;2.30;;;;;;;;;;5111052;28;20031;-71
2022/05/06 15:08:47;;;;;;;5.15;2.90;;;;;;;;;;5111003;28;20406;-71
2022/05/06 15:11:14;;;;;;;5.30;2.83;;;;;;;;;;5110574;28;20031;-72
2022/05/06 15:13:40;;;;;;;5.13;2.67;;;;;;;;;;5110834;28;20016;-71
2022/05/06 15:16:07;;;;;;;3.60;2.17;;;;;;;;;;5110605;28;20116;-71
2022/05/06 15:21:18;;;;;;;7.90;2.97;;;;;;;;;;5110834;28;20125;-70
2022/05/06 15:23:47;;;;;;;5.30;2.75;;;;;;;;;;5110817;28;20472;-73
2022/05/06 15:26:14;;;;;;;4.60;2.50;;;;;;;;;;5110091;28;20103;-73
2022/05/06 15:28:41;;;;;;;5.40;2.75;;;;;;;;;;5110612;28;20027;-72
2022/05/06 15:31:08;;;;;;;5.70;3.10;;;;;;;;;;5110372;28;20480;-71
2022/05/06 15:33:34;;;;;;;6.90;2.58;;;;;;;;;;5110614;28;20024;-72
2022/05/06 15:36:27;;;;;;;6.55;3.47;;;;;;;;;;5111718;27;20388;-71
2022/05/06 15:38:53;;;;;;;6.47;3.00;;;;;;;;;;5110703;28;20023;-71
2022/05/06 15:41:19;;;;;;;5.38;3.10;;;;;;;;;;5111108;28;20028;-71
2022/05/06 15:44:05;;;;;;;8.23;3.38;;;;;;;;;;5111178;27;20380;-71
2022/05/06 15:46:35;;;;;;;6.88;3.63;;;;;;;;;;5110758;28;20032;-70
2022/05/06 15:50:04;;;;;;;5.63;2.70;;;;;;;;;;5112705;27;20416;-69
2022/05/06 15:55:14;;;;;;;5.93;3.45;;;;;;;;;;5111360;27;20711;-70
2022/05/06 15:57:40;;;;;;;6.22;3.53;;;;;;;;;;5111038;28;20024;-71
2022/05/06 16:00:07;;;;;;;8.13;4.22;;;;;;;;;;5110712;28;20081;-71
2022/05/06 16:02:33;;;;;;;12.27;3.30;;;;;;;;;;5111104;28;20395;-71
2022/05/06 16:05:01;;;;;;;5.40;2.92;;;;;;;;;;5111027;28;20020;-71
2022/05/06 16:10:46;;;;;;;5.63;3.47;;;;;;;;;;5111122;27;20448;-70
2022/05/06 16:16:30;;;;;;;;;;;;;;;;;;5091514;27;19923;-70
2022/05/06 16:20:52;;;;;;;;;;;;;;;;;;5091397;28;20384;-71
2022/05/06 16:24:03;;;;;;;;;;;;;;;;;;5153305;27;20006;-72
2022/05/06 16:26:29;;;;;;;;;;;;;;;;;;5152865;27;19915;-71
2022/05/06 16:28:57;;;;;;;;;;;;;;;;;;5133759;27;19914;-71
2022/05/06 16:31:24;;;;;;;;;;;;;;;;;;5153035;27;20271;-71
2022/05/06 16:38:21;;;;;;;;;;;;;;;;;;5091830;27;19923;-74
2022/05/06 16:40:47;;;;;;;;;;;;;;;;;;5091217;28;20426;-70
2022/05/06 16:43:15;;;;;;;;;;;;;;;;;;5090752;28;19995;-70
2022/05/06 16:45:41;;;;;;;;;;;;;;;;;;5089818;28;19908;-71
2022/05/06 16:48:07;;;;;;;;;;;;;;;;;;5091065;28;19912;-69
2022/05/06 16:50:33;;;;;;;;;;;;;;;;;;5090683;28;20275;-70
2022/05/06 16:54:38;;;;;;;;;;;;;;;;;;5091815;28;19938;-70
2022/05/06 16:59:15;;;;;;;;;;;;;;;;;;5091234;27;19916;-70
2022/05/06 17:05:14;;;;;;;;;;;;;;;;;;5091387;27;19922;-70
2022/05/06 17:09:40;;;;;;;;;;;;;;;;;;5152744;27;20038;-70
2022/05/06 17:12:06;;;;;;;;;;;;;;;;;;5153296;27;19911;-69
2022/05/06 17:14:32;;;;;;;;;;;;;;;;;;5152585;27;19907;-69
2022/05/06 17:16:58;;;;;;;;;;;;;;;;;;5152337;27;19919;-71
2022/05/06 17:20:42;;;;;;;;;;;;;;;;;;5092063;27;19923;-71
2022/05/06 17:23:08;;;;;;;;;;;;;;;;;;5091288;28;19912;-71
2022/05/06 17:26:06;;;;;;;;;;;;;;;;;;5091335;27;19922;-70
2022/05/06 17:28:32;;;;;;;;;;;;;;;;;;5091136;28;19959;-71
2022/05/06 17:30:58;;;;;;;;;;;;;;;;;;5090769;28;19948;-70
2022/05/06 17:33:24;;;;;;;;;;;;;;;;;;5091065;28;20383;-70
2022/05/06 17:35:50;;;;;;;;;;;;;;;;;;5091574;28;19908;-71
2022/05/06 17:39:10;;;;;;;;;;;;;;;;;;5091006;27;19916;-69
2022/05/06 17:43:26;;;;;;;;;;;;;;;;;;5173958;27;19915;-70
2022/05/06 17:45:52;;;;;;;;;;;;;;;;;;5154467;27;19918;-70
2022/05/06 17:48:18;;;;;;;;;;;;;;;;;;5173632;27;19907;-70
2022/05/06 17:53:08;;;;;;;;;;;;;;;;;;5090914;27;19919;-70
2022/05/06 17:55:34;;;;;;;;;;;;;;;;;;5091156;28;19920;-70
2022/05/06 17:58:00;;;;;;;;;;;;;;;;;;5091055;28;19943;-71
2022/05/06 18:02:09;;;;;;;;;;;;;;;;;;5091258;28;20373;-70
2022/05/06 18:05:00;;;;;;;;;;;;;;;;;;5091221;27;19913;-70
2022/05/06 18:09:22;;;;;;;;;;;;;;;;;;5091410;27;19916;-70
2022/05/06 18:11:48;;;;;;;;;;;;;;;;;;5091106;28;20343;-70
2022/05/06 18:14:14;;;;;;;;;;;;;;;;;;5089380;28;19940;-71
2022/05/06 18:17:22;;;;;;;;;;;;;;;;;;5091277;28;19916;-70
2022/05/06 18:19:49;;;;;;;;;;;;;;;;;;5090791;28;19944;-70
2022/05/06 18:22:51;;;;;;;;;;;;;;;;;;5152770;27;19998;-72
2022/05/06 18:25:17;;;;;;;;;;;;;;;;;;5152775;27;19965;-70
2022/05/06 18:27:44;;;;;;;;;;;;;;;;;;5152298;27;20018;-70
2022/05/06 18:30:10;;;;;;;;;;;;;;;;;;5152634;27;20313;-71
2022/05/06 18:34:35;;;;;;;;;;;;;;;;;;5091120;28;20232;-70
2022/05/06 18:37:49;;;;;;;;;;;;;;;;;;5091182;27;20291;-70
2022/05/06 18:40:16;;;;;;;;;;;;;;;;;;5090886;28;20380;-70
2022/05/06 18:44:47;;;;;;;;;;;;;;;;;;5091653;27;19919;-71
2022/05/06 18:47:13;;;;;;;;;;;;;;;;;;5091165;28;19951;-70
2022/05/06 18:53:07;;;;;;;;;;;;;;;;;;5091417;27;19916;-69
2022/05/06 18:55:34;;;;;;;;;;;;;;;;;;5090768;28;19913;-69
2022/05/06 18:59:49;;;;;;;;;;;;;;;;;;5152589;27;19918;-69
2022/05/06 19:04:28;;;;;;;;;;;;;;;;;;5091452;27;19921;-71
2022/05/06 19:06:55;;;;;;;;;;;;;;;;;;5091273;28;19912;-71
2022/05/06 19:09:53;;;;;;;;;;;;;;;;;;5091207;28;19927;-70
2022/05/06 19:16:16;;;;;;;;;;;;;;;;;;5090818;27;20383;-69
2022/05/06 19:20:29;;;;;;;;;;;;;;;;;;5092793;27;2293139;-70
2022/05/06 19:25:40;;;;;;;;;;;;;;;;;;5173503;27;20064;-70